KSME/SME METAR and TAF weather

Enter ICAO airport designator
Station Type Date Time Source
KSME METAR 2022/11/27 09:15 UTC NOAA

KSME 270915Z AUTO 16006KT 3SM RA BR FEW003 SCT033 BKN055 12/12 A2962 RMK AO2


Station Type Date Time Source
KSME Decoded METAR 2022/11/27 09:15 UTC NOAA

Somerset, Somerset-Pulaski County - J.T. Wilson Field Airport, KY, United States (KSME) 37-03-15N 084-36-54W
Nov 27, 2022 - 04:15 AM EST / 2022.11.27 0915 UTC
Wind: from the SSE (160 degrees) at 7 MPH (6 KT):0
Visibility: 3 mile(s):0
Sky conditions: mostly cloudy
Weather: rain; mist
Temperature: 53 F (12 C)
Dew Point: 53 F (12 C)
Relative Humidity: 100%
Pressure (altimeter): 29.62 in. Hg (1003 hPa)
ob: KSME 270915Z AUTO 16006KT 3SM RA BR FEW003 SCT033 BKN055 12/12 A2962 RMK AO2
cycle: 9

Station Type Date Time Source
KSME TAF 2022/11/27 06:45 UTC NOAA

TAF KSME 270538Z 2706/2806 VRB06KT P6SM -RA OVC050 WS020/18040KT
FM270900 16009KT P6SM RA SCT025 OVC040 WS020/18040KT
FM271100 17010KT P6SM VCSH SCT020 BKN040 WS020/18045KT
FM271400 21012G21KT P6SM VCSH BKN040
FM271600 22015G31KT P6SM BKN030
FM280000 24011G24KT P6SM BKN015

Example: see airport list